Time;durP1;ratioP1;P1;durP2;ratioP2;P2;SDS_P1;SDS_P2;PMS_P1;PMS_P2;Temp;Humidity;BMP_temperature;BMP_pressure;BME280_temperature;BME280_humidity;BME280_pressure;Samples;Min_cycle;Max_cycle;Signal;HPM_P1;HPM_P2
2022/12/26 00:00:12;;;;;;;87.45;11.40;;;6.70;99.90;;;;;;5031502;28;20100;-74
2022/12/26 00:02:38;;;;;;;66.03;10.85;;;6.70;99.90;;;;;;5026019;28;20494;-74
2022/12/26 00:05:03;;;;;;;84.60;11.32;;;6.70;99.90;;;;;;5025853;28;20060;-76
2022/12/26 00:07:29;;;;;;;100.88;11.27;;;6.70;99.90;;;;;;5028729;28;20074;-74
2022/12/26 00:09:54;;;;;;;57.28;9.95;;;6.80;99.90;;;;;;5030532;28;20381;-74
2022/12/26 00:12:20;;;;;;;63.35;9.85;;;6.80;99.90;;;;;;5024813;28;20083;-74
2022/12/26 00:14:45;;;;;;;67.53;9.57;;;6.80;99.90;;;;;;5028142;28;20038;-74
2022/12/26 00:17:11;;;;;;;85.10;10.40;;;6.80;99.90;;;;;;5030728;28;20031;-74
2022/12/26 00:19:36;;;;;;;85.43;10.02;;;6.80;99.90;;;;;;5032969;28;20428;-73
2022/12/26 00:22:02;;;;;;;78.45;10.23;;;6.80;99.90;;;;;;5033947;28;20046;-74
2022/12/26 00:24:27;;;;;;;78.43;10.98;;;6.80;99.90;;;;;;5035438;28;20033;-74
2022/12/26 00:26:53;;;;;;;92.18;12.25;;;6.80;99.90;;;;;;5032712;28;20091;-75
2022/12/26 00:29:18;;;;;;;85.47;10.48;;;6.80;99.90;;;;;;5029725;28;20450;-74
2022/12/26 00:31:43;;;;;;;108.05;11.38;;;6.80;99.90;;;;;;5030303;28;20037;-74
2022/12/26 00:34:11;;;;;;;66.53;11.07;;;6.90;99.90;;;;;;5031503;28;20466;-75
2022/12/26 00:36:36;;;;;;;85.18;12.00;;;6.90;99.90;;;;;;5030917;28;20029;-75
2022/12/26 00:39:02;;;;;;;98.20;11.18;;;6.90;99.90;;;;;;5033537;28;20394;-75
2022/12/26 00:41:28;;;;;;;119.22;13.02;;;6.90;99.90;;;;;;5032540;28;20041;-74
2022/12/26 00:43:54;;;;;;;178.68;14.80;;;6.90;99.90;;;;;;5033009;28;20355;-75
2022/12/26 00:46:20;;;;;;;99.40;13.68;;;6.80;99.90;;;;;;5031971;28;20574;-74
2022/12/26 00:48:46;;;;;;;121.68;13.13;;;6.90;99.90;;;;;;5029828;28;20104;-74
2022/12/26 00:51:12;;;;;;;128.35;13.95;;;6.80;99.90;;;;;;5029523;28;20064;-74
2022/12/26 00:53:37;;;;;;;128.00;14.00;;;6.90;99.90;;;;;;5030431;28;20131;-74
2022/12/26 00:56:03;;;;;;;92.47;13.18;;;6.90;99.90;;;;;;5032057;28;20049;-74
2022/12/26 00:58:29;;;;;;;129.07;13.95;;;6.90;99.90;;;;;;5027935;28;20354;-74
2022/12/26 01:01:03;;;;;;;125.80;13.38;;;6.90;99.90;;;;;;5033950;28;20026;-72
2022/12/26 01:03:29;;;;;;;148.35;14.75;;;6.90;99.90;;;;;;5027867;28;20036;-74
2022/12/26 01:05:54;;;;;;;123.72;14.75;;;6.90;99.90;;;;;;5031119;28;20033;-74
2022/12/26 01:08:20;;;;;;;143.95;15.02;;;6.90;99.90;;;;;;5032906;28;20033;-75
2022/12/26 01:10:46;;;;;;;113.53;14.77;;;6.90;99.90;;;;;;5030101;28;20045;-74
2022/12/26 01:13:12;;;;;;;119.85;16.55;;;6.90;99.90;;;;;;5033304;28;20037;-74
2022/12/26 01:15:37;;;;;;;158.55;17.08;;;7.00;99.90;;;;;;5034532;28;20394;-74
2022/12/26 01:18:04;;;;;;;171.88;17.17;;;7.00;99.90;;;;;;5025782;28;20034;-77
2022/12/26 01:20:29;;;;;;;118.50;16.15;;;7.00;99.90;;;;;;5031105;28;20025;-74
2022/12/26 01:22:55;;;;;;;167.65;16.33;;;6.90;99.90;;;;;;5032944;28;20079;-74
2022/12/26 01:25:22;;;;;;;133.52;16.10;;;6.90;99.90;;;;;;5030716;28;20128;-74
2022/12/26 01:27:47;;;;;;;132.07;15.55;;;6.90;99.90;;;;;;5031274;28;20424;-75
2022/12/26 01:30:13;;;;;;;146.43;15.70;;;7.00;99.90;;;;;;5032953;28;20112;-74
2022/12/26 01:32:38;;;;;;;140.55;15.13;;;7.00;99.90;;;;;;5032811;28;20119;-75
2022/12/26 01:35:04;;;;;;;129.80;15.48;;;6.90;99.90;;;;;;5029704;28;20036;-75
2022/12/26 01:37:30;;;;;;;187.15;16.60;;;6.90;99.90;;;;;;5032536;28;20484;-75
2022/12/26 01:39:55;;;;;;;113.05;15.30;;;6.90;99.90;;;;;;5030941;28;20033;-74
2022/12/26 01:42:24;;;;;;;91.45;13.43;;;6.90;99.90;;;;;;5033382;28;20034;-74
2022/12/26 01:45:05;;;;;;;162.85;15.70;;;6.90;99.90;;;;;;5033111;28;20394;-74
2022/12/26 01:47:36;;;;;;;189.88;15.27;;;6.90;99.90;;;;;;5031910;28;20171;-74
2022/12/26 01:50:04;;;;;;;162.63;15.90;;;6.90;99.90;;;;;;5031120;28;20029;-76
2022/12/26 01:52:37;;;;;;;149.32;15.15;;;6.90;99.90;;;;;;5025037;28;20029;-75
2022/12/26 01:55:04;;;;;;;170.52;15.82;;;6.90;99.90;;;;;;5031002;28;20497;-74
2022/12/26 01:57:35;;;;;;;150.30;14.82;;;6.90;99.90;;;;;;5030567;28;20129;-76
2022/12/26 02:00:01;;;;;;;148.63;16.70;;;6.90;99.90;;;;;;5032945;28;20033;-75
2022/12/26 02:02:29;;;;;;;148.75;16.35;;;7.00;99.90;;;;;;5031039;28;20041;-74
2022/12/26 02:07:44;;;;;;;138.55;14.82;;;6.90;99.90;;;;;;5025226;28;20088;-75
2022/12/26 02:10:22;;;;;;;165.20;15.98;;;6.90;99.90;;;;;;5029444;28;20030;-74
2022/12/26 02:12:49;;;;;;;144.93;15.48;;;6.90;99.90;;;;;;5017802;28;20042;-74
2022/12/26 02:15:16;;;;;;;160.20;14.80;;;6.90;99.90;;;;;;5032412;28;20528;-75
2022/12/26 02:17:42;;;;;;;150.00;15.77;;;6.90;99.90;;;;;;5030633;28;20497;-74
2022/12/26 02:20:23;;;;;;;163.80;14.98;;;6.90;99.90;;;;;;5029133;28;20041;-74
2022/12/26 02:23:10;;;;;;;117.35;13.88;;;6.90;99.90;;;;;;5032992;28;20045;-74
2022/12/26 02:26:02;;;;;;;134.48;14.57;;;6.90;99.90;;;;;;5027331;28;20029;-74
2022/12/26 02:28:58;;;;;;;115.28;14.32;;;6.90;99.90;;;;;;5026941;28;20065;-74
2022/12/26 02:31:47;;;;;;;84.97;13.18;;;7.00;99.90;;;;;;5029055;28;20459;-73
2022/12/26 02:34:42;;;;;;;108.72;13.65;;;7.00;99.90;;;;;;5029504;28;20021;-76
2022/12/26 02:37:57;;;;;;;115.97;13.45;;;7.00;99.90;;;;;;5029645;28;20456;-74
2022/12/26 02:40:45;;;;;;;142.70;14.43;;;7.00;99.90;;;;;;5007925;28;20041;-74
2022/12/26 02:43:36;;;;;;;150.70;14.30;;;7.00;99.90;;;;;;5029566;28;20060;-74
2022/12/26 02:49:04;;;;;;;147.30;15.70;;;7.00;99.90;;;;;;5030618;28;20040;-74
2022/12/26 03:15:07;;;;;;;182.95;14.48;;;7.10;99.90;;;;;;5027028;28;20045;-75
2022/12/26 03:17:48;;;;;;;220.75;16.67;;;7.10;99.90;;;;;;5028624;28;20048;-75
2022/12/26 03:20:19;;;;;;;229.68;15.65;;;7.10;99.90;;;;;;5030289;28;20485;-76
2022/12/26 03:22:51;;;;;;;126.40;14.15;;;7.10;99.90;;;;;;5026069;28;20048;-74
2022/12/26 03:28:19;;;;;;;217.55;16.77;;;7.10;99.90;;;;;;5025596;28;20092;-73
2022/12/26 03:30:48;;;;;;;209.23;17.20;;;7.20;99.90;;;;;;5027592;28;20037;-74
2022/12/26 03:36:10;;;;;;;224.23;16.95;;;7.10;99.90;;;;;;5020086;28;20199;-74
2022/12/26 03:39:06;;;;;;;244.03;17.43;;;7.10;99.90;;;;;;5031928;28;20026;-73
2022/12/26 04:20:49;;;;;;;56.70;12.55;;;7.30;99.90;;;;;;5023737;28;20055;-77
2022/12/26 04:46:21;;;;;;;51.85;14.32;;;7.30;99.90;;;;;;5025733;28;20084;-74
2022/12/26 04:51:33;;;;;;;43.63;12.70;;;7.30;99.90;;;;;;5027984;28;20028;-76
2022/12/26 04:53:59;;;;;;;37.35;12.30;;;7.30;99.90;;;;;;5031303;28;20113;-74
2022/12/26 04:56:24;;;;;;;39.92;12.65;;;7.30;99.90;;;;;;5030458;28;20159;-75
2022/12/26 04:58:50;;;;;;;38.92;11.77;;;7.40;99.90;;;;;;5028185;28;20034;-74
2022/12/26 05:09:33;;;;;;;35.88;11.40;;;7.30;99.90;;;;;;5032296;28;20048;-75
2022/12/26 05:11:59;;;;;;;30.85;10.50;;;7.40;99.90;;;;;;5028664;28;20029;-74
2022/12/26 05:14:25;;;;;;;34.38;10.32;;;7.40;99.90;;;;;;5031745;28;20110;-75
2022/12/26 05:30:35;;;;;;;30.35;9.98;;;7.40;99.90;;;;;;5032482;28;20104;-70
2022/12/26 05:35:45;;;;;;;28.02;10.85;;;7.50;99.90;;;;;;5029312;28;20075;-70
2022/12/26 05:38:10;;;;;;;29.83;10.90;;;7.50;99.90;;;;;;5033778;28;20045;-70
2022/12/26 05:40:36;;;;;;;26.17;10.50;;;7.50;99.90;;;;;;5030107;28;20025;-69
2022/12/26 05:43:04;;;;;;;24.83;9.38;;;7.50;99.90;;;;;;5029650;28;20033;-70
2022/12/26 05:45:29;;;;;;;22.70;8.98;;;7.50;99.90;;;;;;5033580;28;20045;-70
2022/12/26 05:47:59;;;;;;;21.75;9.10;;;7.50;99.90;;;;;;5024829;28;20504;-70
2022/12/26 05:50:24;;;;;;;28.35;9.57;;;7.50;99.90;;;;;;5032281;28;20048;-70
2022/12/26 05:52:50;;;;;;;21.42;8.10;;;7.50;99.90;;;;;;5033448;28;20033;-69
2022/12/26 05:55:16;;;;;;;24.40;8.27;;;7.50;99.90;;;;;;5031748;28;20424;-70
2022/12/26 05:57:41;;;;;;;18.30;7.68;;;7.50;99.90;;;;;;5030472;28;20030;-70
2022/12/26 06:00:07;;;;;;;18.38;7.50;;;7.50;99.90;;;;;;5025766;28;20087;-70
2022/12/26 06:02:32;;;;;;;21.65;7.40;;;7.50;99.90;;;;;;5019030;28;20084;-69
2022/12/26 06:04:58;;;;;;;14.63;6.38;;;7.50;99.90;;;;;;5030028;28;20040;-70
2022/12/26 06:07:23;;;;;;;16.10;6.20;;;7.50;99.90;;;;;;5029015;28;20040;-70
2022/12/26 06:09:49;;;;;;;14.00;5.93;;;7.50;99.90;;;;;;5032826;28;20052;-70
2022/12/26 06:12:14;;;;;;;17.58;6.85;;;7.50;99.90;;;;;;5025892;28;20124;-70
2022/12/26 06:14:40;;;;;;;15.93;6.53;;;7.50;99.90;;;;;;5026985;28;20037;-70
2022/12/26 06:17:05;;;;;;;15.45;6.10;;;7.50;99.90;;;;;;5028448;28;20029;-70
2022/12/26 06:19:30;;;;;;;13.02;6.30;;;7.50;99.90;;;;;;5029538;28;20394;-70
2022/12/26 06:21:56;;;;;;;19.95;6.55;;;7.50;99.90;;;;;;5023461;28;20046;-69
2022/12/26 06:24:22;;;;;;;16.05;6.45;;;7.50;99.90;;;;;;5028163;28;20030;-71
2022/12/26 06:26:48;;;;;;;22.90;8.55;;;7.50;99.90;;;;;;5017563;28;20046;-70
2022/12/26 06:29:13;;;;;;;24.50;8.75;;;7.60;99.90;;;;;;5028702;28;20041;-70
2022/12/26 06:31:39;;;;;;;34.35;10.20;;;7.60;99.90;;;;;;5027738;28;20030;-69
2022/12/26 06:34:04;;;;;;;34.10;10.68;;;7.60;99.90;;;;;;5029378;28;20025;-70
2022/12/26 06:36:30;;;;;;;46.08;11.23;;;7.60;99.90;;;;;;5028558;28;20434;-70
2022/12/26 06:38:56;;;;;;;41.55;12.82;;;7.60;99.90;;;;;;5030391;28;20033;-70
2022/12/26 06:41:23;;;;;;;37.97;12.32;;;7.70;99.90;;;;;;5027083;28;20030;-70
2022/12/26 06:43:48;;;;;;;48.10;16.55;;;7.70;99.90;;;;;;5032430;28;20489;-70
2022/12/26 06:46:17;;;;;;;53.33;16.23;;;7.70;99.90;;;;;;5029551;28;20034;-70
2022/12/26 06:48:43;;;;;;;60.53;17.20;;;7.70;99.90;;;;;;5029117;28;20470;-71
2022/12/26 06:51:14;;;;;;;57.72;19.23;;;7.70;99.90;;;;;;5027609;28;20045;-69
2022/12/26 06:53:40;;;;;;;60.95;18.08;;;7.80;99.90;;;;;;5020022;28;20099;-70
2022/12/26 06:56:11;;;;;;;66.55;18.52;;;7.80;99.90;;;;;;5031534;28;20037;-70
2022/12/26 06:58:37;;;;;;;59.88;18.10;;;7.80;99.90;;;;;;5030493;28;20711;-69
2022/12/26 07:01:05;;;;;;;63.22;18.05;;;7.80;99.90;;;;;;5020204;28;20505;-70
2022/12/26 07:03:30;;;;;;;62.90;20.13;;;7.80;99.90;;;;;;5027706;28;20444;-70
2022/12/26 07:05:56;;;;;;;61.60;19.10;;;7.80;99.90;;;;;;5023419;28;20040;-70
2022/12/26 07:08:21;;;;;;;64.90;19.40;;;7.80;99.90;;;;;;5029368;28;20104;-69
2022/12/26 07:10:47;;;;;;;68.03;21.02;;;7.80;99.90;;;;;;5027481;28;20045;-70
2022/12/26 07:13:12;;;;;;;65.55;19.88;;;7.80;99.90;;;;;;5028494;28;20052;-69
2022/12/26 07:15:38;;;;;;;75.43;20.58;;;7.80;99.90;;;;;;5025636;28;20481;-70
2022/12/26 07:18:03;;;;;;;69.40;19.92;;;7.80;99.90;;;;;;5022772;28;20088;-71
2022/12/26 07:20:28;;;;;;;59.22;19.85;;;7.80;99.90;;;;;;5026363;28;20120;-70
2022/12/26 07:22:54;;;;;;;72.50;21.95;;;7.80;99.90;;;;;;5030751;28;20057;-70
2022/12/26 07:25:19;;;;;;;68.50;20.65;;;7.80;99.90;;;;;;5027261;28;20032;-69
2022/12/26 07:27:45;;;;;;;67.30;20.25;;;7.80;99.90;;;;;;5017506;28;20112;-70
2022/12/26 07:30:11;;;;;;;70.10;21.83;;;7.80;99.90;;;;;;5028758;28;20057;-69
2022/12/26 07:32:36;;;;;;;80.55;24.00;;;7.80;99.90;;;;;;5022178;28;20034;-70
2022/12/26 07:35:02;;;;;;;74.72;21.00;;;7.80;99.90;;;;;;5027377;28;20040;-70
2022/12/26 07:37:27;;;;;;;78.97;22.17;;;7.90;99.90;;;;;;5029507;28;20103;-70
2022/12/26 07:39:53;;;;;;;81.25;22.92;;;7.80;99.90;;;;;;5030372;28;20037;-71
2022/12/26 07:42:20;;;;;;;74.05;22.48;;;7.90;99.90;;;;;;5022798;28;20454;-70
2022/12/26 07:44:45;;;;;;;69.95;20.98;;;7.80;99.90;;;;;;5029949;28;20029;-69
2022/12/26 07:47:11;;;;;;;79.00;22.38;;;7.90;99.90;;;;;;5028701;28;20028;-70
2022/12/26 07:49:36;;;;;;;79.85;22.95;;;7.90;99.90;;;;;;5024129;28;20127;-68
2022/12/26 07:52:03;;;;;;;84.95;23.52;;;7.90;99.90;;;;;;5021770;28;20037;-67
2022/12/26 07:54:30;;;;;;;74.57;21.33;;;7.90;99.90;;;;;;5030789;28;20389;-68
2022/12/26 07:56:56;;;;;;;77.45;21.45;;;7.80;99.90;;;;;;5028781;28;20497;-67
2022/12/26 07:59:22;;;;;;;74.82;21.83;;;7.80;99.90;;;;;;5027844;28;20041;-67
2022/12/26 08:01:47;;;;;;;76.75;22.67;;;7.80;99.90;;;;;;5023510;28;20087;-68
2022/12/26 08:04:13;;;;;;;77.72;21.75;;;7.80;99.90;;;;;;5028855;28;20398;-68
2022/12/26 08:06:39;;;;;;;72.75;22.20;;;7.70;99.90;;;;;;5025557;28;20033;-68
2022/12/26 08:09:04;;;;;;;80.35;23.10;;;7.70;99.90;;;;;;5026171;28;20044;-70
2022/12/26 08:11:32;;;;;;;81.07;22.50;;;7.70;99.90;;;;;;5022769;28;20091;-68
2022/12/26 08:13:58;;;;;;;68.22;20.92;;;7.60;99.90;;;;;;5026874;28;20021;-68
2022/12/26 08:16:23;;;;;;;79.95;21.35;;;7.60;99.90;;;;;;5023933;28;20461;-68
2022/12/26 08:18:49;;;;;;;71.55;22.23;;;7.60;99.90;;;;;;5024022;28;20045;-68
2022/12/26 08:21:15;;;;;;;74.25;20.85;;;7.60;99.90;;;;;;5021921;28;20044;-67
2022/12/26 08:23:40;;;;;;;80.55;22.70;;;7.70;99.90;;;;;;5029069;28;20381;-68
2022/12/26 08:26:09;;;;;;;78.85;22.40;;;7.80;99.90;;;;;;5022363;28;20029;-68
2022/12/26 08:28:35;;;;;;;85.00;22.80;;;7.80;99.90;;;;;;5028082;28;20340;-67
2022/12/26 08:31:05;;;;;;;76.18;23.13;;;7.80;99.90;;;;;;5023919;28;20100;-75
2022/12/26 08:33:31;;;;;;;74.72;21.33;;;7.90;99.90;;;;;;5023318;28;20037;-68
2022/12/26 08:36:03;;;;;;;73.63;20.90;;;7.80;99.90;;;;;;5027182;28;20042;-67
2022/12/26 08:38:29;;;;;;;65.75;20.60;;;7.90;99.90;;;;;;5029187;28;20366;-68
2022/12/26 08:40:55;;;;;;;70.20;20.08;;;7.90;99.90;;;;;;5030990;28;20116;-68
2022/12/26 08:43:22;;;;;;;73.60;21.33;;;7.90;99.90;;;;;;5034733;28;20374;-68
2022/12/26 08:45:57;;;;;;;70.75;20.88;;;7.90;99.90;;;;;;5033530;28;20057;-68
2022/12/26 08:48:22;;;;;;;65.68;20.33;;;8.00;99.90;;;;;;5031861;28;20198;-70
2022/12/26 08:50:53;;;;;;;72.05;20.70;;;8.00;99.90;;;;;;5030746;28;20116;-68
2022/12/26 08:53:18;;;;;;;68.78;20.85;;;7.90;99.90;;;;;;5027399;28;20057;-73
2022/12/26 08:55:44;;;;;;;70.78;19.67;;;8.00;99.90;;;;;;5029741;28;20117;-68
2022/12/26 08:58:09;;;;;;;63.63;20.70;;;7.90;99.90;;;;;;5024239;28;20045;-70
2022/12/26 09:00:35;;;;;;;64.10;20.08;;;8.00;99.90;;;;;;5025555;28;20481;-71
2022/12/26 09:03:00;;;;;;;57.67;20.33;;;8.00;99.90;;;;;;5018003;28;20065;-71
2022/12/26 09:05:26;;;;;;;61.47;18.05;;;8.00;99.90;;;;;;5031615;28;20038;-70
2022/12/26 09:07:51;;;;;;;62.17;18.73;;;8.10;99.90;;;;;;5022627;28;20041;-76
2022/12/26 09:10:17;;;;;;;66.07;19.80;;;8.10;99.90;;;;;;5032351;28;20397;-68
2022/12/26 09:12:42;;;;;;;64.47;18.85;;;8.10;99.90;;;;;;5032172;28;20042;-82
2022/12/26 09:15:08;;;;;;;57.70;18.95;;;8.10;99.90;;;;;;5029562;28;20131;-70
2022/12/26 09:17:33;;;;;;;60.70;19.23;;;8.10;99.90;;;;;;5033379;28;20084;-72
2022/12/26 09:19:59;;;;;;;59.08;18.23;;;8.10;99.90;;;;;;5031268;28;20492;-72
2022/12/26 09:25:09;;;;;;;57.53;18.70;;;8.10;99.90;;;;;;5024966;28;20044;-71
2022/12/26 09:27:34;;;;;;;60.13;19.30;;;8.10;99.90;;;;;;5029776;28;20034;-73
2022/12/26 09:29:59;;;;;;;45.97;17.10;;;8.10;99.90;;;;;;5022978;28;20041;-73
2022/12/26 09:32:25;;;;;;;45.83;17.58;;;8.10;99.90;;;;;;5026102;28;20117;-70
2022/12/26 09:34:50;;;;;;;53.58;17.73;;;8.10;99.90;;;;;;5029889;28;20034;-72
2022/12/26 09:37:16;;;;;;;51.65;17.05;;;8.20;99.90;;;;;;5031348;28;20371;-72
2022/12/26 09:39:41;;;;;;;45.75;17.30;;;8.20;99.90;;;;;;5030669;28;20037;-72
2022/12/26 09:42:34;;;;;;;44.70;17.23;;;8.20;99.90;;;;;;5033231;28;20033;-72
2022/12/26 09:45:13;;;;;;;42.45;16.70;;;8.20;99.90;;;;;;5025869;28;20080;-72
2022/12/26 09:48:09;;;;;;;41.30;16.55;;;8.20;99.90;;;;;;5033471;28;20037;-70
2022/12/26 09:50:37;;;;;;;45.03;16.58;;;8.20;99.90;;;;;;5030999;28;20029;-71
2022/12/26 09:53:35;;;;;;;43.78;16.33;;;8.20;99.90;;;;;;5030538;28;20030;-74
2022/12/26 09:56:13;;;;;;;40.22;16.98;;;8.20;99.90;;;;;;5027478;28;20037;-72
2022/12/26 09:58:54;;;;;;;46.38;16.67;;;8.20;99.90;;;;;;5023890;28;20048;-72
2022/12/26 10:01:24;;;;;;;36.95;16.50;;;8.20;99.90;;;;;;5022219;28;20071;-72
2022/12/26 10:03:58;;;;;;;34.85;15.57;;;8.20;99.90;;;;;;5025848;28;20045;-67
2022/12/26 10:06:36;;;;;;;36.88;15.77;;;8.20;99.90;;;;;;5026493;28;20041;-71
2022/12/26 10:09:21;;;;;;;36.95;16.30;;;8.20;99.90;;;;;;5031927;28;20037;-72
2022/12/26 10:12:21;;;;;;;41.70;16.45;;;8.20;99.90;;;;;;5031540;28;20462;-70
2022/12/26 10:15:17;;;;;;;39.35;16.92;;;8.20;99.90;;;;;;5031832;28;20030;-69
2022/12/26 10:18:17;;;;;;;36.33;15.55;;;8.20;99.90;;;;;;5025341;28;20030;-69
2022/12/26 10:21:09;;;;;;;37.20;17.17;;;8.30;99.90;;;;;;5012793;28;20049;-70
2022/12/26 10:23:38;;;;;;;36.22;16.88;;;8.30;99.90;;;;;;5025032;28;20524;-69
2022/12/26 10:26:12;;;;;;;33.83;15.25;;;8.30;99.90;;;;;;5030293;28;20095;-69
2022/12/26 10:28:45;;;;;;;31.08;15.30;;;8.30;99.90;;;;;;5023140;28;20064;-68
2022/12/26 10:31:25;;;;;;;34.97;15.20;;;8.40;99.90;;;;;;5019631;28;20034;-72
2022/12/26 10:34:16;;;;;;;34.65;14.80;;;8.40;99.90;;;;;;5029079;28;20478;-68
2022/12/26 10:36:49;;;;;;;;;;;8.50;99.70;;;;;;5022082;28;20041;-69
2022/12/26 10:39:32;;;;;;;27.70;13.30;;;8.50;99.40;;;;;;5027399;28;22201;-69
2022/12/26 10:42:07;;;;;;;27.95;14.23;;;8.60;99.00;;;;;;5019882;28;20534;-69
2022/12/26 10:44:33;;;;;;;24.23;12.80;;;8.60;99.10;;;;;;5025860;28;20473;-68
2022/12/26 10:47:14;;;;;;;26.42;14.30;;;8.60;99.00;;;;;;5020699;28;20057;-69
2022/12/26 10:49:41;;;;;;;;;;;8.60;98.80;;;;;;5024499;28;20099;-69
2022/12/26 10:52:09;;;;;;;23.30;12.90;;;8.70;98.60;;;;;;5024849;28;19917;-67
2022/12/26 10:54:34;;;;;;;23.67;12.15;;;8.70;98.60;;;;;;5017455;28;20026;-69
2022/12/26 10:57:01;;;;;;;20.02;11.15;;;8.70;98.50;;;;;;5023775;28;20059;-69
2022/12/26 10:59:48;;;;;;;20.13;10.55;;;8.70;98.30;;;;;;5030446;28;20109;-68
2022/12/26 11:02:25;;;;;;;18.05;10.57;;;8.70;97.90;;;;;;5026795;28;20033;-69
2022/12/26 11:05:07;;;;;;;19.08;10.88;;;8.70;97.90;;;;;;5029395;28;20874;-69
2022/12/26 11:07:36;;;;;;;20.48;10.95;;;8.70;98.10;;;;;;5029842;28;20496;-69
2022/12/26 11:10:03;;;;;;;18.63;9.45;;;8.60;98.20;;;;;;5025468;28;20442;-69
2022/12/26 11:12:49;;;;;;;16.52;9.93;;;8.70;98.10;;;;;;5025203;28;20109;-70
2022/12/26 11:15:33;;;;;;;16.85;9.32;;;8.70;97.80;;;;;;5028198;28;20072;-71
2022/12/26 11:18:32;;;;;;;15.85;8.85;;;8.70;97.80;;;;;;5023904;28;20045;-69
2022/12/26 11:21:31;;;;;;;15.35;9.10;;;8.80;97.10;;;;;;5025636;28;20386;-69
2022/12/26 11:24:05;;;;;;;18.35;9.65;;;8.80;97.40;;;;;;5029362;28;20034;-68
2022/12/26 11:26:31;;;;;;;15.13;9.23;;;8.80;97.30;;;;;;5027139;28;20620;-70
2022/12/26 11:29:14;;;;;;;13.95;7.85;;;8.80;97.20;;;;;;5025420;28;20149;-69
2022/12/26 11:31:48;;;;;;;12.35;7.72;;;8.90;97.20;;;;;;5020650;28;20030;-69
2022/12/26 11:34:19;;;;;;;14.45;8.18;;;8.80;97.50;;;;;;5024423;28;21663;-69
2022/12/26 11:36:47;;;;;;;13.00;7.85;;;8.80;97.60;;;;;;5019301;28;20108;-69
2022/12/26 11:39:23;;;;;;;10.85;7.90;;;8.80;97.50;;;;;;5030768;28;20592;-69
2022/12/26 11:41:50;;;;;;;14.25;7.80;;;8.90;97.30;;;;;;5025060;28;20048;-68
2022/12/26 11:44:25;;;;;;;10.80;7.07;;;8.80;97.40;;;;;;5028765;28;20528;-69
2022/12/26 11:47:11;;;;;;;13.18;7.55;;;8.90;97.50;;;;;;5026717;28;20031;-69
2022/12/26 11:50:00;;;;;;;13.55;7.50;;;8.80;97.60;;;;;;5026694;28;20386;-68
2022/12/26 11:52:50;;;;;;;11.52;7.00;;;8.80;97.70;;;;;;5027778;28;20104;-69
2022/12/26 11:55:21;;;;;;;14.88;7.50;;;8.80;97.70;;;;;;5030517;28;20036;-68
2022/12/26 11:58:05;;;;;;;10.65;6.80;;;8.80;97.80;;;;;;5029141;28;20391;-69
2022/12/26 12:00:40;;;;;;;11.48;7.13;;;8.80;98.20;;;;;;5029454;28;20053;-68
2022/12/26 12:03:25;;;;;;;13.45;7.10;;;8.70;98.30;;;;;;5027985;28;20060;-68
2022/12/26 12:06:24;;;;;;;13.27;6.82;;;8.70;98.60;;;;;;5026103;28;20030;-70
2022/12/26 12:08:59;;;;;;;11.35;6.05;;;8.60;99.10;;;;;;5024886;28;20041;-68
2022/12/26 12:12:02;;;;;;;15.43;7.40;;;8.60;99.30;;;;;;5020225;28;20033;-68
2022/12/26 12:14:53;;;;;;;11.48;6.70;;;8.60;99.40;;;;;;5026516;28;20038;-68
2022/12/26 12:17:33;;;;;;;12.55;6.68;;;8.60;99.50;;;;;;5019839;28;20065;-69
2022/12/26 12:20:28;;;;;;;12.30;7.07;;;8.60;99.60;;;;;;5028476;28;20478;-73
2022/12/26 12:23:14;;;;;;;15.35;7.55;;;8.60;99.70;;;;;;5026642;28;20057;-74
2022/12/26 12:25:53;;;;;;;13.20;6.60;;;8.60;99.70;;;;;;5023432;28;20088;-73
2022/12/26 12:28:25;;;;;;;12.00;6.80;;;8.70;99.60;;;;;;5025875;28;20083;-71
2022/12/26 12:31:02;;;;;;;15.63;7.05;;;8.70;99.60;;;;;;5028900;28;20116;-70
2022/12/26 12:33:53;;;;;;;12.75;7.57;;;8.70;99.50;;;;;;5026796;28;20038;-71
2022/12/26 12:36:27;;;;;;;12.50;6.75;;;8.70;99.40;;;;;;5027605;28;20057;-71
2022/12/26 12:39:01;;;;;;;10.65;5.85;;;8.70;99.20;;;;;;5030092;28;20034;-71
2022/12/26 12:41:46;;;;;;;13.00;6.00;;;8.70;98.90;;;;;;5028623;28;20034;-71
2022/12/26 12:44:13;;;;;;;12.43;5.90;;;8.80;98.80;;;;;;5028806;28;20116;-72
2022/12/26 12:47:13;;;;;;;12.40;6.22;;;8.80;98.70;;;;;;5024100;28;20059;-71
2022/12/26 12:49:49;;;;;;;11.50;5.50;;;8.80;98.40;;;;;;5025679;28;20385;-69
2022/12/26 12:52:46;;;;;;;11.30;6.10;;;8.90;98.30;;;;;;5028451;28;20056;-77
2022/12/26 12:55:28;;;;;;;11.00;5.88;;;9.00;98.00;;;;;;5029584;28;20041;-71
2022/12/26 12:58:14;;;;;;;8.70;4.85;;;9.00;97.70;;;;;;5022131;28;20065;-72
2022/12/26 13:00:50;;;;;;;7.22;4.35;;;9.00;97.10;;;;;;5025703;28;20029;-78
2022/12/26 13:03:31;;;;;;;7.68;4.90;;;9.00;96.70;;;;;;5026615;28;20052;-69
2022/12/26 13:05:57;;;;;;;;;;;9.00;96.90;;;;;;5027760;28;20481;-75
2022/12/26 13:08:39;;;;;;;11.20;4.55;;;9.00;96.50;;;;;;5029993;28;19924;-71
2022/12/26 13:11:25;;;;;;;8.63;4.30;;;9.10;96.50;;;;;;5027522;28;20037;-70
2022/12/26 13:14:19;;;;;;;5.68;3.50;;;9.10;96.20;;;;;;5029646;28;20041;-69
2022/12/26 13:16:57;;;;;;;5.28;3.00;;;9.00;95.30;;;;;;5023661;28;20066;-70
2022/12/26 13:19:37;;;;;;;5.35;2.40;;;9.00;93.80;;;;;;5023667;28;20041;-69
2022/12/26 13:22:12;;;;;;;3.80;2.17;;;9.00;93.20;;;;;;5027743;28;20049;-69
2022/12/26 13:24:48;;;;;;;5.25;1.75;;;9.00;92.80;;;;;;5018000;28;20554;-69
2022/12/26 13:27:45;;;;;;;4.20;1.60;;;8.90;91.80;;;;;;5032514;28;20071;-69
2022/12/26 13:30:16;;;;;;;4.03;1.67;;;8.80;92.20;;;;;;5019288;28;20041;-69
2022/12/26 13:32:42;;;;;;;4.80;1.77;;;8.80;92.00;;;;;;5025600;28;20378;-71
2022/12/26 13:35:45;;;;;;;3.58;1.25;;;8.70;92.00;;;;;;5029928;28;20029;-69
2022/12/26 13:38:11;;;;;;;7.20;1.27;;;8.60;90.50;;;;;;5026920;28;20477;-73
2022/12/26 13:40:44;;;;;;;5.18;1.23;;;8.60;90.60;;;;;;5032015;28;20033;-70
2022/12/26 13:46:04;;;;;;;4.05;1.48;;;8.40;90.90;;;;;;5023934;28;20044;-70
2022/12/26 13:48:31;;;;;;;3.53;0.90;;;8.20;90.30;;;;;;5028613;28;20026;-70
2022/12/26 13:51:02;;;;;;;3.28;0.85;;;8.20;89.50;;;;;;5028059;28;20022;-73
2022/12/26 13:53:36;;;;;;;1.58;0.70;;;8.10;89.90;;;;;;5027419;28;20034;-69
2022/12/26 13:56:21;;;;;;;4.07;0.85;;;8.10;90.20;;;;;;5021990;28;20382;-69
2022/12/26 13:59:08;;;;;;;3.25;1.00;;;8.00;90.20;;;;;;5023992;28;20098;-72
2022/12/26 14:02:01;;;;;;;7.90;3.40;;;7.90;90.50;;;;;;5025256;28;20029;-71
2022/12/26 14:04:57;;;;;;;5.70;1.27;;;7.70;92.30;;;;;;5024898;28;20032;-68
2022/12/26 14:07:57;;;;;;;9.10;0.90;;;7.60;93.00;;;;;;5025730;28;20124;-69
2022/12/26 14:11:07;;;;;;;4.70;0.90;;;7.40;92.40;;;;;;5023514;28;20044;-69
2022/12/26 14:13:33;;;;;;;6.03;1.25;;;7.40;92.20;;;;;;5023972;28;20509;-74
2022/12/26 14:16:12;;;;;;;3.28;1.00;;;7.30;91.70;;;;;;5031185;28;20029;-71
2022/12/26 14:18:54;;;;;;;4.10;1.02;;;7.30;91.60;;;;;;5027022;28;20947;-70
2022/12/26 14:21:44;;;;;;;3.05;0.70;;;7.30;91.50;;;;;;5026071;28;20187;-72
2022/12/26 14:24:33;;;;;;;6.32;0.88;;;7.30;91.20;;;;;;5031113;28;20036;-71
2022/12/26 14:27:32;;;;;;;3.85;0.98;;;7.30;91.10;;;;;;5020859;28;20587;-72
2022/12/26 14:30:20;;;;;;;5.03;0.73;;;7.10;91.60;;;;;;5027872;28;20040;-71
2022/12/26 14:32:54;;;;;;;3.22;0.47;;;7.10;92.20;;;;;;5024613;28;20021;-73
2022/12/26 14:35:46;;;;;;;2.33;0.52;;;7.00;92.00;;;;;;5025791;28;20033;-73
2022/12/26 14:38:36;;;;;;;3.63;0.75;;;6.90;92.40;;;;;;5031530;28;20037;-72
2022/12/26 14:43:55;;;;;;;3.55;1.00;;;6.70;92.90;;;;;;5025460;28;20048;-72
2022/12/26 14:46:30;;;;;;;3.70;0.70;;;6.60;92.70;;;;;;5030214;28;20458;-72
2022/12/26 14:48:59;;;;;;;4.20;0.60;;;6.50;93.20;;;;;;5028698;28;20584;-70
2022/12/26 14:51:30;;;;;;;4.35;1.02;;;6.40;93.20;;;;;;5022935;28;20046;-69
2022/12/26 14:54:24;;;;;;;7.32;0.90;;;6.40;92.70;;;;;;5020043;28;20025;-70
2022/12/26 14:56:50;;;;;;;4.13;1.02;;;6.30;92.40;;;;;;5023271;28;20651;-69
2022/12/26 14:59:29;;;;;;;4.25;0.88;;;6.30;93.30;;;;;;5022162;28;20026;-70
2022/12/26 15:02:21;;;;;;;5.55;0.82;;;6.20;94.10;;;;;;5013408;28;21978;-71
2022/12/26 15:05:09;;;;;;;6.28;1.00;;;6.00;95.50;;;;;;5013873;28;20486;-71
2022/12/26 15:08:08;;;;;;;4.47;0.90;;;6.00;96.10;;;;;;5024779;28;20113;-70
2022/12/26 15:10:58;;;;;;;6.95;1.08;;;5.90;96.70;;;;;;5027056;28;20034;-71
2022/12/26 15:13:53;;;;;;;6.57;1.08;;;5.80;97.30;;;;;;5030235;28;20044;-71
2022/12/26 15:16:21;;;;;;;4.53;0.90;;;5.70;97.80;;;;;;5021580;28;20397;-70
2022/12/26 15:19:20;;;;;;;10.40;1.15;;;5.60;97.50;;;;;;5028493;28;20034;-70
2022/12/26 15:22:07;;;;;;;6.22;1.00;;;5.60;97.50;;;;;;5028581;28;20058;-71
2022/12/26 15:25:00;;;;;;;5.45;1.23;;;5.50;97.10;;;;;;5031615;28;20064;-70